Thunder radar more information blitzortung!


avis per Pluja more information rain snow radar


Visita la nostra xarxa de llocs de meteo:

Template documentation
and downloads

And another site



Rain From: 17-10-2018 23:00 Until: 18-10-2018 16:59 warning for: Rain Level: Yellow info button

Pagina Historial Weather Underground text

Diari Resum Abril 9, 2016 Unitats:  Mètric    Imperial   Tant
« Previous Dia
SegĂźent Dia »
Diari Setmana Mensual Anual Personalitzada
  Maxima: Minima: Media:
Temperatura: -17.8 °C -14.2 °C -9.5 °C
Punt de rosada: -17.8 °C -17.7 °C -15.9 °C
Humitat: Humidity % 32 % 47 %
Wind Speed: 0 km/h 0 km/h 12.4 km/h
RĂ fegues de vent: 0 km/h - -
Vent:- - SW
Pression baro: 0 hPa 34097 hPa -
Precipitacions: 0 mm    
Historical Graphs
 
 
Dades de taula per Abril 9, 2016
Temps Temperatura Punt de rosada Pression baro Vent Wind Speed RĂ fegues de vent Humitat Rainfall Rate (Hourly)
-17.8 °C -17.8 °C 0 hPa Calm     Humidity % 0 mm
00:00 -13.2 °C -15.9 °C 34256.2 hPa West 2.6 km/h 2.6 km/h 71 % 0 mm
00:05 -13.2 °C -15.9 °C 34256.2 hPa West 2.6 km/h 2.6 km/h 72 % 0 mm
00:15 -13.9 °C -17.7 °C 34198.6 hPa WNW 2.6 km/h 10.3 km/h 62 % 0 mm
00:25 -13.9 °C -17.7 °C 34198.6 hPa West 2.6 km/h 10.3 km/h 62 % 0 mm
00:35 -13.9 °C -17.7 °C 34198.6 hPa West 7.7 km/h 10.3 km/h 62 % 0 mm
00:45 -13.9 °C -17.7 °C 34198.6 hPa West 2.6 km/h 15.6 km/h 62 % 0 mm
00:55 -13.9 °C -17.7 °C 34198.6 hPa WSW 2.6 km/h 10.3 km/h 62 % 0 mm
01:15 -14.1 °C -17.7 °C 34198.6 hPa SSW 7.7 km/h 10.3 km/h 63 % 0 mm
01:25 -14.1 °C -17.6 °C 34222.3 hPa SW 7.7 km/h 10.3 km/h 64 % 0 mm
01:35 -14.1 °C -17.6 °C 34222.3 hPa WSW 5.1 km/h 5.1 km/h 64 % 0 mm
01:45 -14.1 °C -17.6 °C 34198.6 hPa SE 2.6 km/h 7.7 km/h 64 % 0 mm
01:55 -14.2 °C -17.7 °C 34198.6 hPa East 5.1 km/h 10.3 km/h 64 % 0 mm
02:05 -14.2 °C -17.7 °C 34198.6 hPa ENE 2.6 km/h 12.9 km/h 64 % 0 mm
02:15 -14.2 °C -17.7 °C 34222.3 hPa NNE 2.6 km/h 7.7 km/h 64 % 0 mm
02:25 -14.2 °C -17.7 °C 34222.3 hPa NW 2.6 km/h 5.1 km/h 64 % 0 mm
02:35 -14.2 °C -17.7 °C 34222.3 hPa WSW 7.7 km/h 12.9 km/h 64 % 0 mm
02:45 -14.1 °C -17.5 °C 34198.6 hPa West 7.7 km/h 15.6 km/h 65 % 0 mm
03:15 -14 °C -17.6 °C 34222.3 hPa SW 15.6 km/h 15.6 km/h 64 % 0 mm
03:25 -13.9 °C -17.4 °C 34222.3 hPa North 12.9 km/h 12.9 km/h 64 % 0 mm
03:35 -13.9 °C -17.4 °C 34222.3 hPa NNW 5.1 km/h 10.3 km/h 64 % 0 mm
03:45 -13.9 °C -17.4 °C 34222.3 hPa SW 7.7 km/h 10.3 km/h 64 % 0 mm
03:55 -13.8 °C -17.3 °C 34222.3 hPa SW 7.7 km/h 15.6 km/h 64 % 0 mm
04:05 -13.7 °C -17.4 °C 34222.3 hPa West 7.7 km/h 7.7 km/h 63 % 0 mm
04:15 -13.6 °C -17.3 °C 34222.3 hPa WSW 2.6 km/h 10.3 km/h 63 % 0 mm
04:25 -13.6 °C -17.3 °C 34222.3 hPa SW 2.6 km/h 7.7 km/h 63 % 0 mm
04:35 -13.6 °C -17.2 °C 34222.3 hPa SSW 2.6 km/h 7.7 km/h 63 % 0 mm
04:45 -13.3 °C -17.1 °C 34256.2 hPa SW 7.7 km/h 10.3 km/h 62 % 0 mm
04:55 -12.8 °C -16.6 °C 34222.3 hPa SW 7.7 km/h 7.7 km/h 62 % 0 mm
05:05 -12.4 °C -16.6 °C 34222.3 hPa West 2.6 km/h 10.3 km/h 60 % 0 mm
05:15 -12 °C -16.4 °C 34222.3 hPa WNW 5.1 km/h 5.1 km/h 58 % 0 mm
05:35 -11.6 °C -16.6 °C 34198.6 hPa West 5.1 km/h 12.9 km/h 54 % 0 mm
05:45 -11.3 °C -16.3 °C 34222.3 hPa West 5.1 km/h 7.7 km/h 54 % 0 mm
05:55 -11.2 °C -16.4 °C 34198.6 hPa WSW 7.7 km/h 10.3 km/h 53 % 0 mm
06:05 -10.9 °C -16.3 °C 34198.6 hPa SW 7.7 km/h 12.9 km/h 52 % 0 mm
06:15 -10.6 °C -16.1 °C 34198.6 hPa WSW 5.1 km/h 10.3 km/h 51 % 0 mm
06:25 -10.4 °C -16.1 °C 34198.6 hPa WSW 7.7 km/h 12.9 km/h 50 % 0 mm
11:32 -10.2 °C -16.2 °C 34198.6 hPa WSW 15 km/h 15.3 km/h 48 % 0 mm
11:37 -10.2 °C -16.3 °C 34198.6 hPa SW 15 km/h 15 km/h 47 % 0 mm
11:42 -9.9 °C -16.2 °C 34198.6 hPa West 15 km/h 15 km/h 47 % 0 mm
11:47 -9.8 °C -16.1 °C 34198.6 hPa WSW 15 km/h 15 km/h 47 % 0 mm
11:52 -9.6 °C -16 °C 34198.6 hPa WSW 11.9 km/h 11.9 km/h 46 % 0 mm
11:57 -9.5 °C -16.1 °C 34198.6 hPa WSW 15 km/h 15 km/h 45 % 0 mm
12:02 -9.4 °C -16 °C 34164.7 hPa SW 11.9 km/h 11.9 km/h 45 % 0 mm
12:07 -9.3 °C -16.3 °C 34164.7 hPa WSW 20.9 km/h 20.9 km/h 43 % 0 mm
12:12 -9.2 °C -16.2 °C 34164.7 hPa WSW 15 km/h 15 km/h 43 % 0 mm
12:17 -8.9 °C -15.9 °C 34198.6 hPa WSW 17.9 km/h 17.9 km/h 43 % 0 mm
12:22 -8.8 °C -16 °C 34198.6 hPa SW 14 km/h 14 km/h 42 % 0 mm
12:32 -8.8 °C -16.2 °C 34198.6 hPa WSW 20.9 km/h 20.9 km/h 41 % 0 mm
12:37 -8.7 °C -15.9 °C 34198.6 hPa WSW 15 km/h 15 km/h 42 % 0 mm
12:42 -8.6 °C -15.9 °C 34198.6 hPa WSW 20.9 km/h 20.9 km/h 41 % 0 mm
12:47 -8.6 °C -16.2 °C 34198.6 hPa WSW 23.8 km/h 23.8 km/h 40 % 0 mm
12:52 -8.5 °C -16.3 °C 34198.6 hPa West 15.3 km/h 15.3 km/h 39 % 0 mm
12:57 -8.6 °C -16.3 °C 34198.6 hPa WSW 20.9 km/h 20.9 km/h 39 % 0 mm
13:02 -8.6 °C -16.4 °C 34198.6 hPa WSW 15 km/h 15 km/h 39 % 0 mm
13:07 -8.5 °C -16.1 °C 34198.6 hPa West 26.9 km/h 26.9 km/h 40 % 0 mm
13:12 -8.4 °C -16 °C 34198.6 hPa WSW 23.8 km/h 23.8 km/h 40 % 0 mm
13:17 -8.2 °C -15.9 °C 34164.7 hPa WSW 17.9 km/h 17.9 km/h 40 % 0 mm
13:27 -8.2 °C -15.8 °C 34164.7 hPa WSW 15 km/h 15 km/h 40 % 0 mm
13:32 -8.2 °C -15.8 °C 34164.7 hPa SW 26.9 km/h 26.9 km/h 40 % 0 mm
13:42 -8.2 °C -16 °C 34164.7 hPa WNW 16.1 km/h 16.1 km/h 39 % 0 mm
13:47 -8.2 °C -16 °C 34164.7 hPa WSW 9 km/h 9 km/h 39 % 0 mm
13:52 -8.2 °C -16 °C 34164.7 hPa West 20.9 km/h 20.9 km/h 39 % 0 mm
13:57 -8.2 °C -16 °C 34164.7 hPa WSW 17.9 km/h 17.9 km/h 39 % 0 mm
14:02 -8.2 °C -16 °C 34164.7 hPa WSW 15.6 km/h 15.6 km/h 39 % 0 mm
14:07 -8.2 °C -16 °C 34164.7 hPa SW 10.3 km/h 10.3 km/h 39 % 0 mm
14:12 -7.6 °C -15.7 °C 34164.7 hPa WSW 29.8 km/h 29.8 km/h 38 % 0 mm
14:17 -7.6 °C -15.7 °C 34164.7 hPa WNW 11.9 km/h 11.9 km/h 38 % 0 mm
14:22 -7.6 °C -15.7 °C 34164.7 hPa WNW 17.9 km/h 17.9 km/h 38 % 0 mm
14:27 -7.6 °C -15.7 °C 34164.7 hPa SW 23.8 km/h 23.8 km/h 38 % 0 mm
14:32 -7.6 °C -15.7 °C 34164.7 hPa SW 11.9 km/h 11.9 km/h 38 % 0 mm
14:37 -7.6 °C -15.7 °C 34164.7 hPa West 11.9 km/h 11.9 km/h 38 % 0 mm
14:42 -7.2 °C -15.8 °C 34164.7 hPa WSW 32.8 km/h 32.8 km/h 36 % 0 mm
14:47 -7.3 °C -15.6 °C 34164.7 hPa WSW 35.7 km/h 35.7 km/h 37 % 0 mm
14:52 -7.4 °C -15.9 °C 34164.7 hPa WSW 26.9 km/h 26.9 km/h 36 % 0 mm
14:57 -7.4 °C -15.9 °C 34164.7 hPa SE 17.9 km/h 17.9 km/h 36 % 0 mm
15:02 -7.2 °C -15.8 °C 34164.7 hPa WSW 16.1 km/h 16.1 km/h 36 % 0 mm
15:07 -7.2 °C -15.8 °C 34164.7 hPa West 20.9 km/h 20.9 km/h 36 % 0 mm
15:12 -7.1 °C -15.4 °C 34164.7 hPa South 20.9 km/h 20.9 km/h 37 % 0 mm
15:17 -7 °C -15.6 °C 34130.9 hPa NNE 15 km/h 15 km/h 36 % 0 mm
15:22 -7 °C -15.6 °C 34130.9 hPa SW 15.3 km/h 15.3 km/h 36 % 0 mm
15:27 -7 °C -15.6 °C 34130.9 hPa WNW 15 km/h 15 km/h 36 % 0 mm
15:32 -7 °C -15.6 °C 34130.9 hPa WSW 22.5 km/h 22.5 km/h 36 % 0 mm
15:37 -6.8 °C -15.6 °C 34130.9 hPa WSW 17.9 km/h 17.9 km/h 35 % 0 mm
15:42 -6.7 °C -15.8 °C 34130.9 hPa WSW 23.8 km/h 23.8 km/h 34 % 0 mm
15:47 -6.4 °C -15.6 °C 34130.9 hPa WNW 15 km/h 15 km/h 34 % 0 mm
15:52 -6.4 °C -15.3 °C 34130.9 hPa WNW 26.9 km/h 26.9 km/h 35 % 0 mm
15:57 -6.4 °C -15.6 °C 34130.9 hPa South 20.9 km/h 20.9 km/h 34 % 0 mm
16:02 -6.7 °C -16 °C 34130.9 hPa WSW 23.8 km/h 23.8 km/h 33 % 0 mm
16:07 -6.6 °C -15.7 °C 34130.9 hPa SW 15 km/h 15 km/h 34 % 0 mm
16:12 -6.6 °C -15.7 °C 34130.9 hPa NNW 20.9 km/h 20.9 km/h 34 % 0 mm
16:17 -6.6 °C -15.7 °C 34130.9 hPa West 11.9 km/h 11.9 km/h 34 % 0 mm
16:22 -6.2 °C -15.1 °C 34130.9 hPa SW 11.9 km/h 11.9 km/h 35 % 0 mm
16:27 -6.1 °C -15.2 °C 34130.9 hPa WSW 23.8 km/h 23.8 km/h 34 % 0 mm
16:33 -6.4 °C -15.7 °C 34130.9 hPa West 16.1 km/h 16.1 km/h 33 % 0 mm
16:38 -6.1 °C -15.2 °C 34130.9 hPa West 15 km/h 15 km/h 34 % 0 mm
16:43 -6.1 °C -15.2 °C 34130.9 hPa SW 8.5 km/h 8.5 km/h 34 % 0 mm
16:48 -6.1 °C -15.2 °C 34130.9 hPa SW 11.9 km/h 11.9 km/h 34 % 0 mm
16:53 -6.3 °C -15.7 °C 34130.9 hPa WSW 20.9 km/h 20.9 km/h 33 % 0 mm
16:58 -6.2 °C -15.3 °C 34130.9 hPa South 15 km/h 15 km/h 34 % 0 mm
17:03 -5.8 °C -15.1 °C 34130.9 hPa SW 4.2 km/h 4.2 km/h 34 % 0 mm
17:08 -5.8 °C -15.2 °C 34130.9 hPa WSW 15.3 km/h 15.3 km/h 33 % 0 mm
17:13 -6.1 °C -15.4 °C 34130.9 hPa WSW 26.9 km/h 26.9 km/h 33 % 0 mm
17:18 -6.1 °C -15.4 °C 34130.9 hPa SW 17.9 km/h 17.9 km/h 33 % 0 mm
17:23 -6.1 °C -15.4 °C 34130.9 hPa SW 15 km/h 15 km/h 33 % 0 mm
17:28 -6.1 °C -15.4 °C 34130.9 hPa West 15 km/h 17.4 km/h 33 % 0 mm
17:33 -6.1 °C -15.4 °C 34130.9 hPa WSW 15 km/h 15 km/h 33 % 0 mm
17:38 -6.1 °C -15.4 °C 34130.9 hPa SW 11.9 km/h 11.9 km/h 33 % 0 mm
17:43 -6 °C -15.4 °C 34130.9 hPa WSW 20.9 km/h 20.9 km/h 33 % 0 mm
17:48 -6.1 °C -15.4 °C 34097 hPa SE 15 km/h 15 km/h 33 % 0 mm
17:53 -6.1 °C -15.7 °C 34097 hPa WNW 17.9 km/h 17.9 km/h 32 % 0 mm
17:58 -6.1 °C -15.7 °C 34097 hPa WSW 11.9 km/h 11.9 km/h 32 % 0 mm
18:03 -6.1 °C -15.5 °C 34130.9 hPa West 20.9 km/h 20.9 km/h 33 % 0 mm
18:08 -6.1 °C -15.7 °C 34130.9 hPa WSW 23.8 km/h 23.8 km/h 32 % 0 mm
18:13 -6.1 °C -15.7 °C 34130.9 hPa WSW 17.9 km/h 17.9 km/h 32 % 0 mm
18:18 -6.2 °C -15.6 °C 34164.7 hPa SW 15 km/h 15 km/h 33 % 0 mm
18:23 -5.9 °C -15.6 °C 34164.7 hPa WSW 11.9 km/h 11.9 km/h 32 % 0 mm
18:28 -5.9 °C -15.6 °C 34164.7 hPa SW 16.6 km/h 16.6 km/h 32 % 0 mm
18:33 -6.3 °C -15.4 °C 34130.9 hPa WNW 17.9 km/h 17.9 km/h 34 % 0 mm
18:38 -6.7 °C -15.3 °C 34130.9 hPa South 32.8 km/h 32.8 km/h 36 % 0 mm
18:43 -7 °C -15.2 °C 34130.9 hPa SW 12.7 km/h 12.7 km/h 38 % 0 mm
18:48 -7.2 °C -15.2 °C 34130.9 hPa SSW 23.8 km/h 23.8 km/h 39 % 0 mm
18:53 -7.3 °C -15.1 °C 34130.9 hPa WSW 17.9 km/h 17.9 km/h 40 % 0 mm
18:58 -7.5 °C -15 °C 34130.9 hPa SSW 17.9 km/h 17.9 km/h 41 % 0 mm
19:08 -7.7 °C -14.8 °C 34130.9 hPa SW 17.9 km/h 17.9 km/h 43 % 0 mm
19:13 -8.1 °C -15 °C 34130.9 hPa SW 15 km/h 15 km/h 44 % 0 mm
19:28 -8.6 °C -15.1 °C 34164.7 hPa WSW 22 km/h 22 km/h 46 % 0 mm
19:33 -8.7 °C -14.8 °C 34164.7 hPa WSW 11.9 km/h 14.5 km/h 48 % 0 mm
19:38 -8.8 °C -14.9 °C 34164.7 hPa SW 17.9 km/h 17.9 km/h 48 % 0 mm
19:48 -9.1 °C -14.8 °C 34198.6 hPa SW 17.9 km/h 17.9 km/h 50 % 0 mm
19:53 -9.1 °C -14.7 °C 34198.6 hPa SW 11.9 km/h 11.9 km/h 51 % 0 mm
19:58 -9.2 °C -14.8 °C 34198.6 hPa SW 6 km/h 6.3 km/h 51 % 0 mm
20:03 -9.3 °C -14.9 °C 34198.6 hPa WSW 9 km/h 9 km/h 51 % 0 mm
20:08 -9.4 °C -14.9 °C 34198.6 hPa WSW 11.9 km/h 11.9 km/h 51 % 0 mm
20:13 -9.5 °C -15.1 °C 34198.6 hPa West 4.2 km/h 8.5 km/h 51 % 0 mm
20:18 -9.6 °C -15.1 °C 34198.6 hPa ESE 3.7 km/h   51 % 0 mm
20:23 -9.6 °C -15.2 °C 34198.6 hPa West 9 km/h 9 km/h 51 % 0 mm
20:28 -9.7 °C -15.2 °C 34198.6 hPa West 17.9 km/h 17.9 km/h 51 % 0 mm
20:38 -9.8 °C -15.4 °C 34164.7 hPa WSW 6.8 km/h 6.8 km/h 51 % 0 mm
20:43 -9.9 °C -15.4 °C 34164.7 hPa West 8 km/h 8 km/h 51 % 0 mm
20:48 -9.9 °C -15.5 °C 34198.6 hPa WSW 6.3 km/h 6.3 km/h 51 % 0 mm
20:53 -10 °C -15.6 °C 34198.6 hPa WSW 8.5 km/h 8.5 km/h 51 % 0 mm
20:58 -10.1 °C -15.4 °C 34198.6 hPa WSW 15 km/h 15 km/h 52 % 0 mm
21:03 -10.2 °C -15.6 °C 34222.3 hPa WNW 11.9 km/h 11.9 km/h 52 % 0 mm
21:08 -10.2 °C -15.4 °C 34222.3 hPa WSW 17.9 km/h 17.9 km/h 53 % 0 mm
21:13 -10.4 °C -15.6 °C 34222.3 hPa SW 9.8 km/h 9.8 km/h 53 % 0 mm
21:18 -10.4 °C -15.7 °C 34222.3 hPa SW 9 km/h 9 km/h 53 % 0 mm
21:23 -10.5 °C -15.6 °C 34222.3 hPa SW 9 km/h 9 km/h 54 % 0 mm
21:33 -10.6 °C -15.5 °C 34222.3 hPa SW 7.6 km/h 10.3 km/h 55 % 0 mm
21:38 -10.6 °C -15.5 °C 34222.3 hPa SW 20.9 km/h 20.9 km/h 55 % 0 mm
21:43 -10.7 °C -15.6 °C 34222.3 hPa SSW 6.8 km/h 9.3 km/h 55 % 0 mm
21:53 -10.7 °C -15.6 °C 34222.3 hPa WSW 9 km/h 9 km/h 55 % 0 mm
21:58 -10.8 °C -15.7 °C 34222.3 hPa WSW 9 km/h 9 km/h 55 % 0 mm
22:03 -10.8 °C -15.7 °C 34256.2 hPa WSW 11.9 km/h 11.9 km/h 55 % 0 mm
22:08 -10.9 °C -15.7 °C 34256.2 hPa Calm     56 % 0 mm
22:13 -10.9 °C -15.8 °C 34256.2 hPa SW 9 km/h 9 km/h 55 % 0 mm
22:18 -11 °C -15.7 °C 34256.2 hPa SW 11.9 km/h 11.9 km/h 56 % 0 mm
22:23 -11.1 °C -15.8 °C 34256.2 hPa Calm     56 % 0 mm
22:28 -11.1 °C -15.8 °C 34256.2 hPa Calm     56 % 0 mm
22:33 -11.2 °C -15.7 °C 34256.2 hPa Calm     57 % 0 mm
22:38 -11.2 °C -15.8 °C 34256.2 hPa Calm     57 % 0 mm
22:43 -11.3 °C -15.7 °C 34256.2 hPa Calm     58 % 0 mm
22:48 -11.3 °C -15.8 °C 34256.2 hPa Calm     58 % 0 mm
22:53 -11.3 °C -15.8 °C 34256.2 hPa WNW 3.7 km/h 3.7 km/h 58 % 0 mm
22:58 -11.3 °C -15.7 °C 34256.2 hPa Calm     59 % 0 mm
23:03 -11.3 °C -15.7 °C 34222.3 hPa Calm     59 % 0 mm
23:08 -11.3 °C -15.5 °C 34222.3 hPa NNE 9 km/h 9 km/h 60 % 0 mm
23:13 -11.3 °C -15.5 °C 34222.3 hPa NNE 3.1 km/h   60 % 0 mm
23:18 -11.3 °C -15.5 °C 34256.2 hPa NNE 4.2 km/h 4.2 km/h 60 % 0 mm
23:23 -11.3 °C -15.4 °C 34256.2 hPa Calm     60 % 0 mm
23:33 -11.4 °C -15.6 °C 34256.2 hPa Calm     60 % 0 mm
23:38 -11.4 °C -15.6 °C 34256.2 hPa Calm     60 % 0 mm
23:48 -11.5 °C -15.7 °C 34256.2 hPa Calm     60 % 0 mm
Meteo Sesrovires
Elogis d' Weather Underground - 1.5 mb

Guio original per  Jim McMurry - jmcmurry@mwt.net Adaptat per a la plantilla per  Wim van der Kuil - Leuven-Template.eu

Trobareu la nostra informacio del temps tambe a:

Weather Underground

AWEKAS